Time;durP1;ratioP1;P1;durP2;ratioP2;P2;SDS_P1;SDS_P2;PMS_P1;PMS_P2;Temp;Humidity;BMP_temperature;BMP_pressure;BME280_temperature;BME280_humidity;BME280_pressure;Samples;Min_cycle;Max_cycle;Signal;HPM_P1;HPM_P2
2021/01/06 07:13:38;;;;;;;24.07;15.80;;;4.80;99.90;;;;;;4936916;29;20251;-85
2021/01/06 07:16:23;;;;;;;23.40;16.13;;;4.80;99.90;;;;;;4931135;29;20442;-85
2021/01/06 07:19:04;;;;;;;27.80;17.27;;;4.80;99.90;;;;;;4938695;29;20470;-85
2021/01/06 07:21:34;;;;;;;26.23;18.87;;;4.80;99.90;;;;;;4938001;29;20473;-85
2021/01/06 07:29:33;;;;;;;28.83;19.67;;;4.80;99.90;;;;;;4936706;29;20477;-85
2021/01/06 07:32:24;;;;;;;25.90;18.17;;;4.80;99.90;;;;;;4938599;29;20438;-85
2021/01/06 07:37:43;;;;;;;42.13;19.57;;;4.80;99.90;;;;;;5161373;23;20503;-85
2021/01/06 07:40:36;;;;;;;33.53;19.17;;;4.70;99.90;;;;;;4957547;29;20441;-85
2021/01/06 07:43:20;;;;;;;46.10;21.07;;;4.70;99.90;;;;;;4942982;29;20481;-86
2021/01/06 07:46:26;;;;;;;31.30;19.53;;;4.70;99.90;;;;;;4943145;29;20792;-86
2021/01/06 07:49:38;;;;;;;179.43;32.07;;;4.70;99.90;;;;;;4961395;29;20444;-86
2021/01/06 07:55:27;;;;;;;33.70;20.20;;;4.70;99.90;;;;;;4973292;29;20455;-85
2021/01/06 07:58:07;;;;;;;29.37;18.53;;;4.70;99.90;;;;;;4979376;28;20229;-86
2021/01/06 08:37:02;;;;;;;31.10;19.37;;;4.60;99.90;;;;;;4992185;23;20508;-85
2021/01/06 08:39:46;;;;;;;35.17;27.77;;;4.60;99.90;;;;;;4939483;29;20440;-85
2021/01/06 08:42:22;;;;;;;34.00;22.03;;;4.80;99.90;;;;;;4938111;29;20214;-85
2021/01/06 08:45:01;;;;;;;28.27;20.20;;;5.00;99.90;;;;;;4939671;29;20238;-85
2021/01/06 08:47:41;;;;;;;30.07;20.03;;;5.10;99.90;;;;;;4940232;29;20234;-85
2021/01/06 08:50:30;;;;;;;31.40;20.07;;;5.00;99.90;;;;;;5017311;23;20531;-86
2021/01/06 09:02:17;;;;;;;27.37;19.00;;;4.90;99.90;;;;;;5321467;23;20492;-85
2021/01/06 09:25:26;;;;;;;44.87;20.63;;;4.70;99.90;;;;;;4984895;23;20461;-85
2021/01/06 10:06:10;;;;;;;25.33;16.83;;;5.50;99.90;;;;;;4901334;29;20211;-85
2021/01/06 10:37:54;;;;;;;18.43;15.00;;;5.30;99.90;;;;;;4995499;28;20233;-84
2021/01/06 10:40:36;;;;;;;19.77;16.13;;;5.40;99.90;;;;;;4979100;28;20208;-85
2021/01/06 10:43:39;;;;;;;25.77;17.37;;;5.50;99.90;;;;;;4991002;28;20283;-84
2021/01/06 10:46:39;;;;;;;25.30;17.73;;;5.20;99.90;;;;;;4976814;28;20232;-85
2021/01/06 10:49:29;;;;;;;27.20;18.47;;;5.10;99.90;;;;;;4993667;28;20455;-85
2021/01/06 10:52:17;;;;;;;26.23;19.47;;;4.90;99.90;;;;;;4986612;28;20458;-85
2021/01/06 10:55:03;;;;;;;105.90;29.33;;;4.90;99.90;;;;;;4993279;28;20447;-85
2021/01/06 10:57:37;;;;;;;25.60;18.00;;;5.00;99.90;;;;;;4979340;28;20455;-85
2021/01/06 11:00:19;;;;;;;26.47;18.23;;;5.00;99.90;;;;;;4995419;28;20435;-85
2021/01/06 11:03:30;;;;;;;24.73;18.10;;;4.90;99.90;;;;;;4995427;28;20487;-85
2021/01/06 11:20:50;;;;;;;27.77;17.83;;;5.10;99.90;;;;;;4956199;29;20480;-85
2021/01/06 11:26:35;;;;;;;40.40;18.93;;;5.30;99.90;;;;;;4974728;29;20230;-84
2021/01/06 11:29:22;;;;;;;24.77;15.53;;;5.40;99.90;;;;;;5019360;23;20245;-84
2021/01/06 11:32:37;;;;;;;23.87;16.80;;;5.30;99.90;;;;;;4973981;29;20209;-84
2021/01/06 11:35:48;;;;;;;24.17;15.47;;;5.20;99.90;;;;;;4972568;28;20447;-84
2021/01/06 11:42:10;;;;;;;20.00;14.70;;;5.10;99.90;;;;;;4979558;28;20216;-84
2021/01/06 11:45:25;;;;;;;15.93;13.40;;;4.90;99.90;;;;;;4973680;28;20293;-84
2021/01/06 11:51:46;;;;;;;16.70;13.07;;;5.00;99.90;;;;;;4982399;23;20476;-83
2021/01/06 11:54:23;;;;;;;18.57;12.53;;;5.20;99.90;;;;;;5019465;23;20448;-85
2021/01/06 11:59:44;;;;;;;18.60;14.27;;;5.40;99.90;;;;;;4956605;29;20273;-84
2021/01/06 12:02:19;;;;;;;22.53;14.00;;;5.40;99.90;;;;;;4957849;29;20503;-85
2021/01/06 12:05:12;;;;;;;19.43;14.73;;;5.40;99.90;;;;;;4957410;29;20462;-85
2021/01/06 12:08:20;;;;;;;18.23;14.07;;;5.40;99.90;;;;;;4957779;29;20480;-85
2021/01/06 12:11:05;;;;;;;20.43;14.17;;;5.30;99.90;;;;;;4957654;29;20420;-84
2021/01/06 12:14:02;;;;;;;19.47;14.63;;;5.30;99.90;;;;;;4955110;29;20470;-85
2021/01/06 12:16:39;;;;;;;23.10;15.87;;;5.30;99.90;;;;;;4955845;29;20524;-84
2021/01/06 12:33:00;;;;;;;27.53;19.17;;;5.40;99.90;;;;;;4962044;28;20444;-86
2021/01/06 12:35:34;;;;;;;31.17;21.57;;;5.10;99.90;;;;;;4960928;28;20238;-85
2021/01/06 12:38:09;;;;;;;28.20;20.40;;;5.40;99.90;;;;;;4958925;29;20235;-85
2021/01/06 12:40:59;;;;;;;31.07;21.77;;;5.40;99.90;;;;;;4957790;29;20452;-84
2021/01/06 12:43:41;;;;;;;33.53;21.80;;;5.40;99.90;;;;;;4961240;29;20472;-84
2021/01/06 12:46:46;;;;;;;29.50;21.57;;;5.20;99.90;;;;;;5050693;23;20454;-84
2021/01/06 12:50:01;;;;;;;33.60;30.20;;;5.20;99.90;;;;;;5052894;23;20459;-84
2021/01/06 12:52:55;;;;;;;30.53;22.77;;;5.20;99.90;;;;;;4981391;28;20213;-85
2021/01/06 12:58:48;;;;;;;24.47;18.87;;;5.10;99.90;;;;;;5042294;23;20253;-84
2021/01/06 13:07:25;;;;;;;24.27;19.20;;;5.10;99.90;;;;;;4977989;28;20236;-85
2021/01/06 13:10:08;;;;;;;25.37;18.63;;;5.20;99.90;;;;;;4979455;28;20221;-84
2021/01/06 13:12:46;;;;;;;27.93;19.90;;;5.10;99.90;;;;;;4977324;28;20558;-84
2021/01/06 13:15:29;;;;;;;24.48;19.02;;;5.10;99.90;;;;;;4977628;29;20737;-85
2021/01/06 13:18:03;;;;;;;24.27;18.13;;;5.20;99.90;;;;;;4975980;29;20237;-84
2021/01/06 13:21:11;;;;;;;23.77;17.80;;;5.40;99.90;;;;;;4978212;29;20448;-85
2021/01/06 13:23:46;;;;;;;26.87;19.37;;;5.30;99.90;;;;;;4979188;28;20548;-86
2021/01/06 13:29:35;;;;;;;21.47;16.87;;;5.40;99.90;;;;;;4979354;29;20360;-85
2021/01/06 13:32:15;;;;;;;22.50;17.60;;;5.50;99.90;;;;;;4976947;29;20253;-85
2021/01/06 13:34:50;;;;;;;22.10;17.70;;;5.60;99.90;;;;;;4977267;28;20524;-86
2021/01/06 13:37:44;;;;;;;23.60;17.73;;;5.50;99.90;;;;;;4976824;28;20256;-84
2021/01/06 13:40:55;;;;;;;23.30;19.27;;;5.40;99.90;;;;;;4979615;29;20266;-85
2021/01/06 14:16:22;;;;;;;24.40;18.43;;;5.00;99.90;;;;;;4938866;29;20473;-86
2021/01/06 14:25:14;;;;;;;22.57;13.93;;;5.20;99.90;;;;;;4977170;28;20287;-87
2021/01/06 14:28:33;;;;;;;20.83;13.90;;;5.20;99.90;;;;;;4974685;29;20495;-87
2021/01/06 14:31:55;;;;;;;26.33;13.87;;;5.20;99.90;;;;;;5188946;23;20246;-86
2021/01/06 14:43:28;;;;;;;15.43;12.67;;;5.00;99.90;;;;;;5184137;23;20246;-85
2021/01/06 14:46:20;;;;;;;15.40;13.00;;;5.00;99.90;;;;;;4974989;28;20643;-84
2021/01/06 14:48:51;;;;;;;16.07;12.47;;;5.10;99.90;;;;;;4974342;28;20294;-84
2021/01/06 14:51:47;;;;;;;17.73;14.10;;;5.00;99.90;;;;;;4974715;28;20452;-84
2021/01/06 14:54:22;;;;;;;16.90;13.77;;;5.00;99.90;;;;;;4974576;28;20487;-84
2021/01/06 14:56:55;;;;;;;18.70;15.10;;;4.90;99.90;;;;;;4975421;29;20515;-84
2021/01/06 15:02:24;;;;;;;20.43;13.53;;;4.90;99.90;;;;;;4977738;23;20841;-85
2021/01/06 15:05:07;;;;;;;15.13;12.93;;;4.90;99.90;;;;;;4973718;29;20499;-84
2021/01/06 15:07:47;;;;;;;16.13;13.53;;;4.80;99.90;;;;;;4975509;29;21042;-84
2021/01/06 15:10:36;;;;;;;15.63;11.60;;;4.70;99.90;;;;;;4974659;28;20455;-85
2021/01/06 15:13:29;;;;;;;18.13;12.87;;;4.50;99.90;;;;;;4998324;23;20459;-85
2021/01/06 15:16:26;;;;;;;15.73;11.73;;;4.50;99.90;;;;;;4976351;29;20448;-85
2021/01/06 15:21:55;;;;;;;13.67;11.40;;;4.70;99.90;;;;;;4898557;29;20423;-85
2021/01/06 15:24:26;;;;;;;14.73;11.60;;;4.70;99.90;;;;;;4899799;29;20519;-85
2021/01/06 15:26:58;;;;;;;16.63;11.97;;;4.70;99.90;;;;;;4899251;29;20503;-85
2021/01/06 15:29:32;;;;;;;15.37;12.63;;;4.90;99.90;;;;;;4898111;29;20455;-85
2021/01/06 15:38:24;;;;;;;17.20;13.70;;;4.40;99.90;;;;;;4920119;28;20496;-86
2021/01/06 15:41:02;;;;;;;20.57;13.93;;;4.50;99.90;;;;;;5012924;23;20488;-85
2021/01/06 15:43:40;;;;;;;17.80;14.23;;;4.50;99.90;;;;;;4969493;29;20486;-85
2021/01/06 15:46:24;;;;;;;16.07;13.97;;;4.40;99.90;;;;;;4975964;29;20444;-86
2021/01/06 15:52:41;;;;;;;19.67;15.70;;;4.30;99.90;;;;;;5090787;23;20498;-84
2021/01/06 15:59:01;;;;;;;20.97;15.87;;;4.40;99.90;;;;;;5007394;23;20476;-85
2021/01/06 16:02:25;;;;;;;20.00;15.73;;;4.40;99.90;;;;;;4993132;23;20487;-84
2021/01/06 16:46:04;;;;;;;19.63;14.33;;;4.00;99.90;;;;;;4942380;29;20490;-84
2021/01/06 16:55:46;;;;;;;18.83;13.33;;;3.50;99.90;;;;;;4987767;23;20524;-85
2021/01/06 16:58:42;;;;;;;19.93;14.50;;;3.70;99.90;;;;;;5171485;23;20554;-85
2021/01/06 17:01:34;;;;;;;19.17;14.93;;;3.80;99.90;;;;;;4981520;23;20496;-84
2021/01/06 17:04:30;;;;;;;18.57;14.57;;;3.70;99.90;;;;;;4981004;29;20503;-85
2021/01/06 17:07:32;;;;;;;21.17;14.67;;;3.60;99.90;;;;;;5000066;23;21684;-85
2021/01/06 17:10:41;;;;;;;22.77;20.05;;;3.60;99.90;;;;;;4979879;29;20426;-87
2021/01/06 17:13:34;;;;;;;21.77;15.73;;;3.70;99.90;;;;;;4980145;28;20198;-85
2021/01/06 17:29:47;;;;;;;20.43;14.10;;;3.80;99.90;;;;;;5183636;23;20504;-84
2021/01/06 17:44:51;;;;;;;19.17;14.77;;;3.80;99.90;;;;;;4920574;29;20485;-85
2021/01/06 17:52:50;;;;;;;23.13;17.37;;;3.70;99.90;;;;;;5041543;23;20477;-85
2021/01/06 18:01:18;;;;;;;24.33;17.00;;;3.70;99.90;;;;;;5144292;23;20507;-84
2021/01/06 18:04:17;;;;;;;21.60;16.17;;;3.70;99.90;;;;;;4983991;23;20530;-85
2021/01/06 18:07:00;;;;;;;24.53;16.57;;;3.70;99.90;;;;;;5165993;23;20498;-85
2021/01/06 18:10:00;;;;;;;21.57;15.10;;;3.70;99.90;;;;;;5111917;23;20502;-84
2021/01/06 18:12:56;;;;;;;25.23;15.57;;;3.70;99.90;;;;;;5004056;23;20480;-85
2021/01/06 18:16:11;;;;;;;22.77;15.80;;;3.80;99.90;;;;;;4960525;29;20421;-85
2021/01/06 18:19:06;;;;;;;24.07;15.37;;;3.70;99.90;;;;;;4959994;29;20479;-84
2021/01/06 18:24:34;;;;;;;21.80;15.03;;;3.80;99.90;;;;;;4934858;29;20488;-84
2021/01/06 18:27:30;;;;;;;22.53;15.57;;;3.70;99.90;;;;;;4959980;29;20488;-85
2021/01/06 18:32:45;;;;;;;22.13;15.77;;;3.60;99.90;;;;;;5139061;23;20514;-85
2021/01/06 18:39:18;;;;;;;19.77;15.03;;;3.80;99.90;;;;;;4939564;29;20461;-85
2021/01/06 18:45:01;;;;;;;23.53;14.60;;;3.90;99.90;;;;;;4995269;23;20510;-84
2021/01/06 19:04:18;;;;;;;21.17;14.93;;;3.80;99.90;;;;;;5279365;23;20487;-86
2021/01/06 19:07:00;;;;;;;22.90;15.30;;;3.70;99.90;;;;;;4976008;28;20461;-85
2021/01/06 19:09:36;;;;;;;21.00;14.93;;;3.80;99.90;;;;;;4975722;28;20462;-85
2021/01/06 19:12:10;;;;;;;23.67;16.17;;;3.70;99.90;;;;;;4974380;28;20448;-85
2021/01/06 19:14:44;;;;;;;22.60;16.07;;;3.70;99.90;;;;;;4973835;28;20454;-86
2021/01/06 19:17:20;;;;;;;23.30;16.37;;;3.70;99.90;;;;;;4974611;29;20451;-84
2021/01/06 19:20:17;;;;;;;22.17;14.90;;;3.80;99.90;;;;;;4982796;23;20491;-85
2021/01/06 19:23:09;;;;;;;22.13;16.23;;;3.70;99.90;;;;;;5012052;23;20571;-85
2021/01/06 19:25:41;;;;;;;23.83;15.63;;;3.70;99.90;;;;;;4973434;29;20476;-85
2021/01/06 19:28:11;;;;;;;22.00;15.07;;;3.70;99.90;;;;;;4974047;29;20484;-85
2021/01/06 19:31:01;;;;;;;25.03;16.53;;;3.90;99.90;;;;;;4974099;29;20424;-85
2021/01/06 19:36:28;;;;;;;23.37;16.10;;;3.70;99.90;;;;;;5042032;23;20491;-86
2021/01/06 19:38:58;;;;;;;28.43;17.53;;;3.70;99.90;;;;;;4945765;29;20529;-85
2021/01/06 19:41:30;;;;;;;27.13;17.67;;;3.80;99.90;;;;;;4940395;29;20446;-85
2021/01/06 19:44:01;;;;;;;24.20;16.90;;;4.00;99.90;;;;;;4939617;29;20516;-86
2021/01/06 19:46:37;;;;;;;22.63;16.70;;;4.20;99.90;;;;;;4939859;29;20446;-85
2021/01/06 19:49:14;;;;;;;22.80;16.60;;;4.00;99.90;;;;;;4924119;29;20445;-86
2021/01/06 19:51:55;;;;;;;23.87;16.47;;;3.90;99.90;;;;;;4939833;29;20426;-85
2021/01/06 19:54:29;;;;;;;25.30;17.23;;;4.20;99.90;;;;;;4939811;29;20449;-85
2021/01/06 19:57:18;;;;;;;21.43;15.80;;;4.30;99.90;;;;;;4939149;29;20476;-85
2021/01/06 19:59:48;;;;;;;23.53;16.37;;;4.20;99.90;;;;;;4922788;29;20442;-85
2021/01/06 20:02:19;;;;;;;24.70;17.17;;;3.90;99.90;;;;;;4938973;29;20541;-85
2021/01/06 20:05:01;;;;;;;24.07;17.20;;;4.10;99.90;;;;;;4922179;29;20506;-84
2021/01/06 20:11:31;;;;;;;24.53;17.97;;;3.60;99.90;;;;;;4961048;28;20492;-86
2021/01/06 20:14:06;;;;;;;26.13;17.33;;;3.80;99.90;;;;;;4992210;23;20517;-85
2021/01/06 20:16:35;;;;;;;26.53;18.73;;;3.80;99.90;;;;;;4973091;29;20507;-83
2021/01/06 20:19:09;;;;;;;25.97;17.13;;;3.60;99.90;;;;;;4996266;28;20867;-86
2021/01/06 20:21:43;;;;;;;28.97;18.57;;;3.70;99.90;;;;;;4996934;28;20451;-85
2021/01/06 20:32:16;;;;;;;29.20;19.17;;;4.00;99.90;;;;;;4938957;29;20485;-85
2021/01/06 20:34:47;;;;;;;30.17;20.37;;;4.00;99.90;;;;;;4940733;29;20506;-85
2021/01/06 20:37:16;;;;;;;29.60;20.20;;;4.00;99.90;;;;;;4939318;29;20474;-84
2021/01/06 20:39:45;;;;;;;27.17;19.73;;;4.20;99.90;;;;;;4939380;29;20465;-85
2021/01/06 20:42:17;;;;;;;32.30;21.40;;;3.90;99.90;;;;;;4923244;29;20482;-85
2021/01/06 20:44:47;;;;;;;31.50;21.57;;;4.00;99.90;;;;;;4939601;29;20915;-85
2021/01/06 20:47:15;;;;;;;30.30;20.23;;;3.90;99.90;;;;;;4938773;29;20485;-85
2021/01/06 20:52:31;;;;;;;30.67;21.13;;;3.90;99.90;;;;;;4957855;29;20468;-85
2021/01/06 20:55:27;;;;;;;30.77;22.37;;;3.90;99.90;;;;;;4960227;29;20476;-85
2021/01/06 21:00:46;;;;;;;28.13;21.03;;;4.00;99.90;;;;;;4957933;29;20444;-84
2021/01/06 21:03:17;;;;;;;31.77;22.90;;;4.00;99.90;;;;;;4983586;23;20452;-85
2021/01/06 21:06:20;;;;;;;32.37;21.77;;;4.10;99.90;;;;;;4976041;28;20472;-86
2021/01/06 21:08:49;;;;;;;32.40;21.27;;;4.20;99.90;;;;;;4916744;29;20486;-85
2021/01/06 21:11:20;;;;;;;30.93;23.00;;;4.40;99.90;;;;;;4918980;29;20443;-83
2021/01/06 21:14:00;;;;;;;35.73;23.23;;;4.30;99.90;;;;;;4918928;29;20459;-85
2021/01/06 21:16:45;;;;;;;34.47;23.20;;;4.20;99.90;;;;;;4918311;29;20469;-85
2021/01/06 21:19:19;;;;;;;32.33;22.77;;;4.30;99.90;;;;;;4975857;23;20820;-85
2021/01/06 21:21:48;;;;;;;38.77;24.20;;;4.00;99.90;;;;;;4977170;29;20447;-85
2021/01/06 21:24:25;;;;;;;32.17;22.03;;;4.00;99.90;;;;;;4976003;29;20483;-85
2021/01/06 21:26:58;;;;;;;33.13;23.17;;;3.90;99.90;;;;;;4976362;29;20480;-84
2021/01/06 21:29:32;;;;;;;33.93;22.60;;;4.00;99.90;;;;;;4975753;29;20540;-84
2021/01/06 21:32:00;;;;;;;35.90;22.67;;;4.10;99.90;;;;;;4976221;29;20436;-85
2021/01/06 21:34:36;;;;;;;33.30;21.97;;;3.80;99.90;;;;;;4959835;29;20539;-85
2021/01/06 21:37:11;;;;;;;31.90;21.57;;;3.80;99.90;;;;;;4959485;29;20502;-84
2021/01/06 21:39:47;;;;;;;31.97;22.10;;;3.70;99.90;;;;;;4976147;29;20491;-84
2021/01/06 21:42:26;;;;;;;31.50;22.27;;;3.80;99.90;;;;;;4976337;29;20456;-85
2021/01/06 21:44:58;;;;;;;31.33;21.77;;;3.70;99.90;;;;;;4976803;29;20472;-85
2021/01/06 21:47:26;;;;;;;29.10;21.27;;;3.70;99.90;;;;;;4960470;29;20472;-84
2021/01/06 21:50:12;;;;;;;31.83;21.90;;;3.50;99.90;;;;;;4976108;29;20479;-85
2021/01/06 21:52:39;;;;;;;32.43;22.37;;;3.60;99.90;;;;;;4958801;29;20448;-85
2021/01/06 21:55:10;;;;;;;34.07;23.27;;;3.50;99.90;;;;;;4981901;23;20452;-84
2021/01/06 21:57:43;;;;;;;30.67;21.80;;;3.60;99.90;;;;;;4975661;28;20483;-85
2021/01/06 22:00:26;;;;;;;30.57;21.10;;;3.40;99.90;;;;;;4976238;28;20421;-84
2021/01/06 22:03:10;;;;;;;30.30;21.60;;;3.40;99.90;;;;;;4999708;23;20483;-85
2021/01/06 22:06:04;;;;;;;31.73;21.80;;;3.40;99.90;;;;;;5000448;23;20472;-84
2021/01/06 22:08:34;;;;;;;32.03;21.60;;;3.30;99.90;;;;;;4975839;29;20500;-84
2021/01/06 22:11:05;;;;;;;30.70;22.00;;;3.30;99.90;;;;;;4977315;28;20467;-84
2021/01/06 22:13:40;;;;;;;34.43;20.87;;;3.30;99.90;;;;;;4976944;29;20455;-84
2021/01/06 22:19:00;;;;;;;28.97;21.30;;;3.40;99.90;;;;;;4974339;29;20459;-84
2021/01/06 22:21:30;;;;;;;28.53;21.00;;;3.30;99.90;;;;;;4975294;28;20455;-84
2021/01/06 22:24:06;;;;;;;29.23;20.47;;;3.30;99.90;;;;;;5009238;23;20491;-84
2021/01/06 22:26:37;;;;;;;33.03;23.27;;;3.30;99.90;;;;;;4954412;29;20480;-85
2021/01/06 22:29:08;;;;;;;31.57;21.33;;;3.10;99.90;;;;;;4957736;28;20456;-85
2021/01/06 22:31:46;;;;;;;32.87;21.13;;;3.20;99.90;;;;;;4955962;29;20469;-85
2021/01/06 22:34:20;;;;;;;30.13;21.13;;;3.20;99.90;;;;;;4968982;23;20464;-85
2021/01/06 22:39:54;;;;;;;34.10;22.77;;;3.30;99.90;;;;;;4980821;23;20494;-84
2021/01/06 22:54:33;;;;;;;30.83;21.33;;;2.90;99.90;;;;;;4984969;23;20492;-84
2021/01/06 22:59:56;;;;;;;31.43;21.73;;;2.90;99.90;;;;;;4978672;28;20521;-85
2021/01/06 23:02:29;;;;;;;32.10;21.53;;;3.00;99.90;;;;;;4975426;28;20455;-84
2021/01/06 23:05:13;;;;;;;31.97;22.40;;;3.00;99.90;;;;;;4978566;29;20494;-84
2021/01/06 23:11:21;;;;;;;29.37;20.17;;;3.00;99.90;;;;;;4987949;23;20546;-84
2021/01/06 23:52:34;;;;;;;28.83;19.50;;;3.80;99.90;;;;;;1240780;23;20702;-84
